Time;durP1;ratioP1;P1;durP2;ratioP2;P2;SDS_P1;SDS_P2;PMS_P1;PMS_P2;Temp;Humidity;BMP_temperature;BMP_pressure;BME280_temperature;BME280_humidity;BME280_pressure;Samples;Min_cycle;Max_cycle;Signal;HPM_P1;HPM_P2
2021/05/14 00:00:47;;;;;;;;;;;;;;;-142.75;68.73;76780.94;5081541;28;19920;-81
2021/05/14 00:03:12;;;;;;;;;;;;;;;-142.75;68.53;76798.66;5081187;28;19912;-81
2021/05/14 00:05:38;;;;;;;;;;;;;;;-142.75;68.46;76800.63;5087480;28;19939;-82
2021/05/14 00:08:03;;;;;;;;;;;;;;;-142.75;68.31;76808.50;5084030;28;20034;-81
2021/05/14 00:10:29;;;;;;;;;;;;;;;-142.75;68.54;76806.50;5079369;28;19912;-82
2021/05/14 00:12:54;;;;;;;;;;;;;;;-142.75;68.77;76804.53;5083784;28;19961;-81
2021/05/14 00:15:20;;;;;;;;;;;;;;;-142.75;68.58;76808.50;5082470;28;19912;-82
2021/05/14 00:17:46;;;;;;;;;;;;;;;-142.75;68.70;76810.44;5083163;28;19961;-81
2021/05/14 00:20:11;;;;;;;;;;;;;;;-142.75;68.58;76786.84;5085117;28;19912;-80
2021/05/14 00:22:37;;;;;;;;;;;;;;;-142.75;68.58;76782.91;5081699;28;19912;-82
2021/05/14 00:25:03;;;;;;;;;;;;;;;-142.75;68.84;76775.03;5080262;28;19916;-80
2021/05/14 00:27:28;;;;;;;;;;;;;;;-142.75;68.82;76769.13;5085923;28;20003;-82
2021/05/14 00:29:53;;;;;;;;;;;;;;;-142.75;68.66;76775.03;5086193;28;20000;-81
2021/05/14 00:32:18;;;;;;;;;;;;;;;-142.75;68.47;76771.09;5086737;28;19916;-83
2021/05/14 00:34:44;;;;;;;;;;;;;;;-142.75;68.26;76767.16;5082804;28;19916;-81
2021/05/14 00:37:09;;;;;;;;;;;;;;;-142.75;67.96;76769.13;5082609;28;20016;-83
2021/05/14 00:39:34;;;;;;;;;;;;;;;-142.75;67.82;76790.78;5078294;28;19917;-80
2021/05/14 00:41:59;;;;;;;;;;;;;;;-142.75;67.74;76814.38;5082807;28;19916;-80
2021/05/14 00:44:32;;;;;;;;;;;;;;;-142.75;67.99;76834.06;5079769;28;19916;-81
2021/05/14 00:46:58;;;;;;;;;;;;;;;-142.75;67.96;76851.78;5081079;28;19924;-81
2021/05/14 00:49:24;;;;;;;;;;;;;;;-142.75;67.97;76853.75;5081329;28;19923;-84
2021/05/14 00:51:49;;;;;;;;;;;;;;;-142.75;68.24;76869.50;5083336;28;19927;-81
2021/05/14 00:54:15;;;;;;;;;;;;;;;-142.75;68.33;76879.34;5079744;28;19960;-81
2021/05/14 00:56:40;;;;;;;;;;;;;;;-142.75;68.35;76897.06;5079794;28;19963;-81
2021/05/14 00:59:06;;;;;;;;;;;;;;;-142.75;68.50;76906.91;5078325;28;19991;-81
2021/05/14 01:01:31;;;;;;;;;;;;;;;-142.75;68.47;76914.78;5085223;28;19969;-80
2021/05/14 01:03:56;;;;;;;;;;;;;;;-142.75;68.66;76910.84;5084940;28;19916;-81
2021/05/14 01:06:21;;;;;;;;;;;;;;;-142.75;68.86;76910.84;5083963;28;21413;-81
2021/05/14 01:08:46;;;;;;;;;;;;;;;-142.75;69.38;76912.81;5084807;28;19927;-81
2021/05/14 01:11:12;;;;;;;;;;;;;;;-142.75;69.42;76916.75;5083577;28;19995;-82
2021/05/14 01:13:37;;;;;;;;;;;;;;;-142.75;69.57;76912.81;5080192;28;19928;-81
2021/05/14 01:16:02;;;;;;;;;;;;;;;-142.75;69.85;76901.00;5085498;28;19923;-82
2021/05/14 01:18:27;;;;;;;;;;;;;;;-142.75;69.86;76901.00;5078512;28;20454;-81
2021/05/14 01:20:53;;;;;;;;;;;;;;;-142.75;69.75;76893.13;5089837;28;20058;-81
2021/05/14 01:23:18;;;;;;;;;;;;;;;-142.75;69.83;76895.09;5086209;28;19920;-81
2021/05/14 01:25:43;;;;;;;;;;;;;;;-142.75;68.80;76901.00;5083211;28;19920;-81
2021/05/14 01:28:08;;;;;;;;;;;;;;;-142.75;68.56;76895.09;5082495;28;20304;-86
2021/05/14 01:30:34;;;;;;;;;;;;;;;-142.75;68.95;76881.31;5085122;28;19916;-82
2021/05/14 01:32:59;;;;;;;;;;;;;;;-142.75;69.22;76879.34;5082292;28;19924;-79
2021/05/14 01:35:24;;;;;;;;;;;;;;;-142.75;69.32;76869.50;5085724;28;19923;-80
2021/05/14 01:37:49;;;;;;;;;;;;;;;-142.75;69.26;76877.38;5086811;28;19920;-81
2021/05/14 01:40:15;;;;;;;;;;;;;;;-142.75;68.70;76877.38;5082820;28;19922;-81
2021/05/14 01:42:49;;;;;;;;;;;;;;;-142.75;68.71;76877.38;5087608;28;19960;-84
2021/05/14 01:45:16;;;;;;;;;;;;;;;-142.75;69.07;76867.53;5084027;28;19967;-81
2021/05/14 01:47:42;;;;;;;;;;;;;;;-142.75;68.98;76869.50;5081904;28;19925;-80
2021/05/14 01:50:07;;;;;;;;;;;;;;;-142.75;68.50;76887.22;5084917;28;20000;-81
2021/05/14 01:52:33;;;;;;;;;;;;;;;-142.75;68.60;76881.31;5083277;28;19923;-80
2021/05/14 01:55:00;;;;;;;;;;;;;;;-142.75;68.42;76893.13;5083089;28;21704;-79
2021/05/14 01:57:26;;;;;;;;;;;;;;;-142.75;68.49;76895.09;5080852;28;19999;-81
2021/05/14 01:59:51;;;;;;;;;;;;;;;-142.75;68.45;76895.09;5083317;28;19959;-83
2021/05/14 02:02:18;;;;;;;;;;;;;;;-142.75;68.77;76883.28;5086975;28;19916;-80
2021/05/14 02:04:44;;;;;;;;;;;;;;;-142.75;68.90;76877.38;5083213;28;19916;-79
2021/05/14 02:07:09;;;;;;;;;;;;;;;-142.75;68.89;76871.47;5081331;28;19923;-78
2021/05/14 02:09:34;;;;;;;;;;;;;;;-142.75;68.63;76865.56;5080979;28;19933;-79
2021/05/14 02:12:00;;;;;;;;;;;;;;;-142.75;68.23;76857.69;5083059;28;19916;-79
2021/05/14 02:14:25;;;;;;;;;;;;;;;-142.75;68.20;76849.81;5084580;28;20348;-80
2021/05/14 02:16:50;;;;;;;;;;;;;;;-142.75;67.96;76839.97;5079280;28;19916;-82
2021/05/14 02:19:16;;;;;;;;;;;;;;;-142.75;67.95;76845.88;5082547;28;19942;-80
2021/05/14 02:21:41;;;;;;;;;;;;;;;-142.75;67.60;76857.69;5079819;28;19916;-80
2021/05/14 02:24:07;;;;;;;;;;;;;;;-142.75;67.72;76861.63;5081228;28;20350;-81
2021/05/14 02:26:32;;;;;;;;;;;;;;;-142.75;67.92;76857.69;5083396;28;20023;-80
2021/05/14 02:28:57;;;;;;;;;;;;;;;-142.75;67.95;76849.81;5081567;28;20472;-80
2021/05/14 02:31:23;;;;;;;;;;;;;;;-142.75;67.94;76847.84;5079255;28;19942;-79
2021/05/14 02:33:48;;;;;;;;;;;;;;;-142.75;67.98;76849.81;5084455;28;20300;-80
2021/05/14 02:36:14;;;;;;;;;;;;;;;-142.75;67.75;76865.56;5084992;28;19997;-80
2021/05/14 02:38:39;;;;;;;;;;;;;;;-142.75;68.07;76865.56;5082206;28;19943;-81
2021/05/14 02:41:08;;;;;;;;;;;;;;;-142.75;68.27;76861.63;5081627;28;20388;-81
2021/05/14 02:43:33;;;;;;;;;;;;;;;-142.75;68.26;76869.50;5079124;28;19923;-81
2021/05/14 02:45:59;;;;;;;;;;;;;;;-142.75;68.43;76865.56;5086891;28;19920;-79
2021/05/14 02:48:24;;;;;;;;;;;;;;;-142.75;68.23;76859.66;5084633;28;19921;-80
2021/05/14 02:50:49;;;;;;;;;;;;;;;-142.75;68.30;76843.91;5081657;28;19978;-81
2021/05/14 02:53:14;;;;;;;;;;;;;;;-142.75;68.09;76838.00;5084649;28;19962;-80
2021/05/14 02:55:39;;;;;;;;;;;;;;;-142.75;67.96;76845.88;5080068;28;19916;-84
2021/05/14 02:58:05;;;;;;;;;;;;;;;-142.75;67.96;76841.94;5081182;28;19963;-80
2021/05/14 03:00:30;;;;;;;;;;;;;;;-142.75;67.93;76839.97;5079066;28;20011;-80
2021/05/14 03:02:55;;;;;;;;;;;;;;;-142.75;68.00;76830.13;5080011;28;20003;-81
2021/05/14 03:05:20;;;;;;;;;;;;;;;-142.75;67.92;76838.00;5081462;28;20705;-82
2021/05/14 03:07:45;;;;;;;;;;;;;;;-142.75;67.84;76853.75;5078565;28;19924;-80
2021/05/14 03:10:11;;;;;;;;;;;;;;;-142.75;67.77;76857.69;5080566;28;19916;-81
2021/05/14 03:12:36;;;;;;;;;;;;;;;-142.75;67.65;76863.59;5079044;28;19995;-81
2021/05/14 03:15:03;;;;;;;;;;;;;;;-142.75;67.47;76871.47;5079567;28;19917;-83
2021/05/14 03:17:28;;;;;;;;;;;;;;;-142.75;67.38;76869.50;5088435;28;19919;-79
2021/05/14 03:19:53;;;;;;;;;;;;;;;-142.75;67.29;76867.53;5080456;28;20495;-81
2021/05/14 03:22:18;;;;;;;;;;;;;;;-142.75;67.11;76865.56;5081686;28;19917;-81
2021/05/14 03:24:43;;;;;;;;;;;;;;;-142.75;67.22;76867.53;5085909;28;19976;-82
2021/05/14 03:27:08;;;;;;;;;;;;;;;-142.75;66.95;76865.56;5086973;28;19923;-80
2021/05/14 03:29:34;;;;;;;;;;;;;;;-142.75;67.10;76873.44;5085037;28;20397;-82
2021/05/14 03:31:59;;;;;;;;;;;;;;;-142.75;67.23;76871.47;5084047;28;19939;-81
2021/05/14 03:34:24;;;;;;;;;;;;;;;-142.75;67.44;76885.25;5087393;28;19918;-82
2021/05/14 03:36:49;;;;;;;;;;;;;;;-142.75;67.53;76875.41;5084533;28;20403;-81
2021/05/14 03:39:15;;;;;;;;;;;;;;;-142.75;67.64;76879.34;5082848;28;19917;-82
2021/05/14 03:41:52;;;;;;;;;;;;;;;-142.75;67.77;76891.16;5082904;28;20266;-82
2021/05/14 03:44:17;;;;;;;;;;;;;;;-142.75;67.87;76891.16;5085594;28;20381;-82
2021/05/14 03:46:43;;;;;;;;;;;;;;;-142.75;67.96;76885.25;5079163;28;20015;-82
2021/05/14 03:49:08;;;;;;;;;;;;;;;-142.75;68.11;76885.25;5081785;28;19960;-80
2021/05/14 03:51:34;;;;;;;;;;;;;;;-142.75;68.02;76891.16;5081319;28;19970;-83
2021/05/14 03:53:59;;;;;;;;;;;;;;;-142.75;68.40;76891.16;5084502;28;19938;-82
2021/05/14 03:56:24;;;;;;;;;;;;;;;-142.75;68.37;76891.16;5085867;28;19916;-81
2021/05/14 03:58:49;;;;;;;;;;;;;;;-142.75;68.33;76897.06;5083607;28;19923;-84
2021/05/14 04:01:15;;;;;;;;;;;;;;;-142.75;68.04;76904.94;5080960;28;19916;-82
2021/05/14 04:03:40;;;;;;;;;;;;;;;-142.75;67.76;76920.69;5085860;28;19954;-83
2021/05/14 04:06:06;;;;;;;;;;;;;;;-142.75;67.89;76934.47;5082821;28;19927;-84
2021/05/14 04:08:31;;;;;;;;;;;;;;;-142.75;67.78;76948.25;5087071;28;19923;-82
2021/05/14 04:16:24;;;;;;;;;;;;;;;-142.75;68.61;76956.13;5084257;28;19938;-80
2021/05/14 04:18:49;;;;;;;;;;;;;;;-142.75;68.29;76971.88;5084266;28;20416;-84
2021/05/14 04:21:14;;;;;;;;;;;;;;;-142.75;68.46;76985.66;5083162;28;19998;-82
2021/05/14 04:23:39;;;;;;;;;;;;;;;-142.75;68.44;76975.81;5080968;28;19951;-82
2021/05/14 04:26:04;;;;;;;;;;;;;;;-142.75;68.72;76967.94;5082055;28;20284;-82
2021/05/14 04:28:30;;;;;;;;;;;;;;;-142.75;68.49;76964.00;5081571;28;20002;-82
2021/05/14 04:30:55;;;;;;;;;;;;;;;-142.75;68.64;76964.00;5081433;28;19916;-81
2021/05/14 04:33:20;;;;;;;;;;;;;;;-142.75;68.68;76956.13;5082564;28;19916;-82
2021/05/14 04:35:45;;;;;;;;;;;;;;;-142.75;68.74;76948.25;5082612;28;20319;-82
2021/05/14 04:38:10;;;;;;;;;;;;;;;-142.75;68.67;76940.38;5085984;28;19922;-84
2021/05/14 04:40:35;;;;;;;;;;;;;;;-142.75;68.61;76928.56;5088546;28;19923;-83
2021/05/14 04:43:02;;;;;;;;;;;;;;;-142.75;68.49;76926.59;5085746;28;20355;-83
2021/05/14 04:45:27;;;;;;;;;;;;;;;-142.75;68.44;76918.72;5084086;28;19921;-84
2021/05/14 04:47:52;;;;;;;;;;;;;;;-142.75;68.29;76930.53;5085012;28;19923;-80
2021/05/14 04:50:18;;;;;;;;;;;;;;;-142.75;68.24;76934.47;5084915;28;20376;-82
2021/05/14 04:52:44;;;;;;;;;;;;;;;-142.75;68.43;76928.56;5083273;28;19917;-83
2021/05/14 04:55:09;;;;;;;;;;;;;;;-142.75;68.41;76940.38;5088982;28;19969;-83
2021/05/14 04:57:35;;;;;;;;;;;;;;;-142.75;68.56;76936.44;5087791;28;19920;-83
2021/05/14 05:00:00;;;;;;;;;;;;;;;-142.75;68.18;76932.50;5087241;28;19942;-83
2021/05/14 05:02:25;;;;;;;;;;;;;;;-142.75;68.44;76930.53;5087584;28;19916;-83
2021/05/14 05:04:50;;;;;;;;;;;;;;;-142.75;68.43;76928.56;5087603;28;19925;-83
2021/05/14 05:07:15;;;;;;;;;;;;;;;-142.75;67.96;76940.38;5087294;28;19955;-83
2021/05/14 05:09:41;;;;;;;;;;;;;;;-142.75;68.24;76940.38;5088246;28;19927;-83
2021/05/14 05:12:06;;;;;;;;;;;;;;;-142.75;68.31;76940.38;5089578;28;19923;-83
2021/05/14 05:14:31;;;;;;;;;;;;;;;-142.75;68.55;76920.69;5087230;28;19916;-83
2021/05/14 05:16:56;;;;;;;;;;;;;;;-142.75;68.30;76902.97;5085087;28;19977;-83
2021/05/14 05:19:22;;;;;;;;;;;;;;;-142.75;67.96;76897.06;5081449;28;20358;-81
2021/05/14 05:21:48;;;;;;;;;;;;;;;-142.75;67.75;76885.25;5087854;28;19998;-82
2021/05/14 05:24:13;;;;;;;;;;;;;;;-142.75;67.56;76879.34;5087128;28;19944;-83
2021/05/14 05:26:38;;;;;;;;;;;;;;;-142.75;66.88;76889.19;5087517;28;19921;-83
2021/05/14 05:29:03;;;;;;;;;;;;;;;-142.75;67.19;76891.16;5087506;28;20285;-84
2021/05/14 05:31:29;;;;;;;;;;;;;;;-142.75;67.06;76881.31;5085406;28;19916;-83
2021/05/14 05:33:54;;;;;;;;;;;;;;;-142.75;66.64;76908.88;5087963;28;19916;-81
2021/05/14 05:36:19;;;;;;;;;;;;;;;-142.75;67.20;76904.94;5084817;28;19917;-82
2021/05/14 05:38:45;;;;;;;;;;;;;;;-142.75;67.10;76912.81;5086302;28;19920;-82
2021/05/14 05:41:10;;;;;;;;;;;;;;;-142.75;67.15;76928.56;5086772;28;19939;-81
2021/05/14 05:43:36;;;;;;;;;;;;;;;-142.75;67.72;76952.19;5085001;28;20348;-81
2021/05/14 05:46:01;;;;;;;;;;;;;;;-142.75;67.76;76962.03;5086261;28;19920;-80
2021/05/14 05:48:26;;;;;;;;;;;;;;;-142.75;67.95;76956.13;5083800;28;20300;-81
2021/05/14 05:50:51;;;;;;;;;;;;;;;-142.75;68.14;76950.22;5085508;28;20385;-83
2021/05/14 05:53:17;;;;;;;;;;;;;;;-142.75;68.18;76948.25;5085389;28;19983;-82
2021/05/14 05:55:42;;;;;;;;;;;;;;;-142.75;68.22;76956.13;5085437;28;19923;-81
2021/05/14 05:58:12;;;;;;;;;;;;;;;-142.75;67.94;76958.09;5084366;28;19928;-82
2021/05/14 06:00:37;;;;;;;;;;;;;;;-142.75;68.12;76952.19;5084909;28;19962;-80
2021/05/14 06:03:03;;;;;;;;;;;;;;;-142.75;68.33;76948.25;5084984;28;20395;-80
2021/05/14 06:05:29;;;;;;;;;;;;;;;-142.75;67.68;76960.06;5087408;28;19921;-82
2021/05/14 06:07:54;;;;;;;;;;;;;;;-142.75;67.61;76960.06;5084326;28;19957;-81
2021/05/14 06:10:20;;;;;;;;;;;;;;;-142.75;67.67;76958.09;5089198;28;19924;-81
2021/05/14 06:12:45;;;;;;;;;;;;;;;-142.75;67.60;76948.25;5085309;28;19938;-81
2021/05/14 06:15:10;;;;;;;;;;;;;;;-142.75;67.77;76924.63;5081967;28;19920;-80
2021/05/14 06:17:40;;;;;;;;;;;;;;;-142.75;68.15;76879.34;5086587;28;19959;-80
2021/05/14 06:20:06;;;;;;;;;;;;;;;-142.75;66.58;76839.97;5075848;28;19916;-81
2021/05/14 06:22:32;;;;;;;;;;;;;;;-142.75;66.17;76802.56;5083257;28;19991;-81
2021/05/14 06:24:57;;;;;;;;;;;;;;;-142.75;66.08;76771.09;5085376;28;20344;-79
2021/05/14 06:27:22;;;;;;;;;;;;;;;-142.75;64.94;76741.56;5088597;28;19920;-82
2021/05/14 06:29:47;;;;;;;;;;;;;;;-142.75;64.78;76725.81;5080412;28;19924;-80
2021/05/14 06:32:13;;;;;;;;;;;;;;;-142.75;63.93;76723.84;5076418;28;20293;-79
2021/05/14 06:34:38;;;;;;;;;;;;;;;-142.75;62.91;76759.28;5083516;28;19920;-80
2021/05/14 06:37:03;;;;;;;;;;;;;;;-142.75;62.96;76767.16;5081607;28;19916;-79
2021/05/14 06:39:28;;;;;;;;;;;;;;;-142.75;63.12;76806.50;5087401;28;19986;-80
2021/05/14 06:41:54;;;;;;;;;;;;;;;-142.75;63.62;76775.03;5082208;28;19916;-79
2021/05/14 06:44:19;;;;;;;;;;;;;;;-142.75;63.48;76739.59;5077251;28;19917;-78
2021/05/14 06:46:44;;;;;;;;;;;;;;;-142.75;62.67;76765.19;5084160;28;19928;-77
2021/05/14 06:49:10;;;;;;;;;;;;;;;-142.75;63.43;76749.44;5080658;28;19920;-79
2021/05/14 06:51:35;;;;;;;;;;;;;;;-142.75;63.14;76727.78;5076486;28;19962;-79
2021/05/14 06:54:01;;;;;;;;;;;;;;;-142.75;62.24;76719.91;5081016;28;20014;-79
2021/05/14 06:56:26;;;;;;;;;;;;;;;-142.75;62.85;76723.84;5081978;28;20372;-80
2021/05/14 06:58:54;;;;;;;;;;;;;;;-142.75;62.56;76733.69;5080138;28;19923;-78
2021/05/14 07:01:19;;;;;;;;;;;;;;;-142.75;61.87;76761.25;5078074;28;19916;-78
2021/05/14 07:03:44;;;;;;;;;;;;;;;-142.75;62.23;76786.84;5083166;28;20429;-78
2021/05/14 07:06:11;;;;;;;;;;;;;;;-142.75;64.10;76763.22;5082631;28;19920;-78
2021/05/14 07:08:36;;;;;;;;;;;;;;;-142.75;63.45;76763.22;5070262;28;19916;-77
2021/05/14 07:11:02;;;;;;;;;;;;;;;-142.75;64.31;76749.44;5089093;28;20385;-78
2021/05/14 07:13:27;;;;;;;;;;;;;;;-142.75;63.88;76721.88;5090036;28;20499;-78
2021/05/14 07:15:52;;;;;;;;;;;;;;;-142.75;61.40;76725.81;5090138;28;19923;-77
2021/05/14 07:18:17;;;;;;;;;;;;;;;-142.75;62.05;76706.13;5078261;28;19917;-78
2021/05/14 07:20:42;;;;;;;;;;;;;;;-142.75;62.83;76672.66;5076184;28;19923;-78
2021/05/14 07:23:08;;;;;;;;;;;;;;;-142.75;62.79;76621.47;5081493;28;19921;-78
2021/05/14 07:25:33;;;;;;;;;;;;;;;-142.75;61.51;76523.06;5074341;28;19920;-78
2021/05/14 07:27:58;;;;;;;;;;;;;;;-142.75;59.41;76373.44;5080361;28;19923;-79
2021/05/14 07:30:23;;;;;;;;;;;;;;;-142.75;56.70;76227.78;5086325;28;20529;-80
2021/05/14 07:32:54;;;;;;;;;;;;;;;-142.75;53.20;76101.81;5083372;28;19919;-78
2021/05/14 07:35:19;;;;;;;;;;;;;;;-142.75;51.27;76027.03;5084712;28;19969;-82
2021/05/14 07:37:45;;;;;;;;;;;;;;;-142.75;50.89;75954.22;5080440;28;19916;-78
2021/05/14 07:40:13;;;;;;;;;;;;;;;-142.75;49.35;75899.09;5082049;28;19924;-79
2021/05/14 07:42:39;;;;;;;;;;;;;;;-142.75;48.74;75836.13;5080579;28;19916;-80
2021/05/14 07:45:07;;;;;;;;;;;;;;;-142.75;47.28;75798.72;5079595;28;20273;-80
2021/05/14 07:47:32;;;;;;;;;;;;;;;-142.75;48.25;75912.88;5082941;28;19916;-80
2021/05/14 07:49:58;;;;;;;;;;;;;;;-142.75;47.97;75979.78;5081506;28;19920;-80
2021/05/14 07:52:28;;;;;;;;;;;;;;;-142.75;49.29;76080.16;5081270;28;20035;-80
2021/05/14 07:54:54;;;;;;;;;;;;;;;-142.75;50.02;76149.06;5081384;28;19924;-79
2021/05/14 07:57:21;;;;;;;;;;;;;;;-142.75;51.25;76190.41;5080168;28;20297;-80
2021/05/14 07:59:48;;;;;;;;;;;;;;;-142.75;51.56;76235.66;5082384;28;19928;-82
2021/05/14 08:02:19;;;;;;;;;;;;;;;-142.75;52.03;76231.72;5082402;28;19944;-80
2021/05/14 08:04:44;;;;;;;;;;;;;;;-142.75;50.64;76231.72;5080671;28;19916;-78
2021/05/14 08:07:12;;;;;;;;;;;;;;;-142.75;49.79;76176.63;5084681;28;19999;-79
2021/05/14 08:09:38;;;;;;;;;;;;;;;-142.75;50.52;76123.47;5080222;28;19927;-80
2021/05/14 08:12:05;;;;;;;;;;;;;;;-142.75;48.87;76107.72;5086021;28;20377;-78
2021/05/14 08:14:32;;;;;;;;;;;;;;;-142.75;49.35;76086.06;5088560;28;19982;-80
2021/05/14 08:16:58;;;;;;;;;;;;;;;-142.75;49.65;76093.94;5087604;28;19927;-80
2021/05/14 08:19:23;;;;;;;;;;;;;;;-142.75;45.70;76164.81;5087606;28;19920;-78
2021/05/14 08:21:51;;;;;;;;;;;;;;;-142.75;49.67;76145.13;5090422;28;19920;-79
2021/05/14 08:24:16;;;;;;;;;;;;;;;-142.75;47.71;76141.19;5086382;28;19956;-80
2021/05/14 08:26:42;;;;;;;;;;;;;;;-142.75;46.63;76194.34;5087082;28;19956;-81
2021/05/14 08:29:08;;;;;;;;;;;;;;;-142.75;46.32;76208.09;5087476;28;19920;-78
2021/05/14 08:31:39;;;;;;;;;;;;;;;-142.75;48.18;76174.66;5083766;28;19917;-82
2021/05/14 08:34:04;;;;;;;;;;;;;;;-142.75;46.83;76111.66;5088222;28;19920;-82
2021/05/14 08:36:30;;;;;;;;;;;;;;;-142.75;46.30;76038.84;5088043;28;19921;-82
2021/05/14 08:38:56;;;;;;;;;;;;;;;-142.75;47.54;75999.47;5087196;28;19962;-81
2021/05/14 08:41:21;;;;;;;;;;;;;;;-142.75;46.40;75920.75;5086295;28;20349;-80
2021/05/14 08:43:49;;;;;;;;;;;;;;;-142.75;45.18;75826.28;5086006;28;19930;-82
2021/05/14 08:46:17;;;;;;;;;;;;;;;-142.75;44.30;75731.81;5089303;28;19921;-80
2021/05/14 08:48:45;;;;;;;;;;;;;;;-142.75;43.12;75586.19;5083911;28;19947;-84
2021/05/14 08:51:11;;;;;;;;;;;;;;;-142.75;41.75;75546.81;5087279;28;20279;-83
2021/05/14 08:53:37;;;;;;;;;;;;;;;-142.75;42.00;75475.97;5086870;28;19916;-86
2021/05/14 08:56:09;;;;;;;;;;;;;;;-142.75;40.25;75340.19;5087521;28;19916;-79
2021/05/14 08:59:00;;;;;;;;;;;;;;;-142.75;39.97;75312.63;5089099;28;19920;-83
2021/05/14 09:01:26;;;;;;;;;;;;;;;-142.75;37.15;75271.31;5087146;28;20336;-85
2021/05/14 09:04:14;;;;;;;;;;;;;;;-142.75;39.12;75332.31;5087811;28;19916;-84
2021/05/14 09:06:40;;;;;;;;;;;;;;;-142.75;37.02;75430.72;5087209;28;19970;-83
2021/05/14 09:09:07;;;;;;;;;;;;;;;-142.75;39.43;75485.81;5087669;28;20414;-83
2021/05/14 09:11:42;;;;;;;;;;;;;;;-142.75;38.40;75538.94;5089020;28;20377;-82
2021/05/14 09:14:27;;;;;;;;;;;;;;;-142.75;39.55;75767.22;5088092;28;19938;-81
2021/05/14 09:16:52;;;;;;;;;;;;;;;-142.75;43.38;75802.66;5091331;28;19924;-84
2021/05/14 09:19:29;;;;;;;;;;;;;;;-142.75;42.87;75897.13;5090684;28;20049;-84
2021/05/14 09:22:05;;;;;;;;;;;;;;;-142.75;44.51;75824.31;5090137;28;19960;-86
2021/05/14 09:24:30;;;;;;;;;;;;;;;-142.75;39.84;75739.69;5084938;28;20405;-83
2021/05/14 09:26:56;;;;;;;;;;;;;;;-142.75;41.40;75615.69;5083957;28;19971;-84
2021/05/14 09:29:35;;;;;;;;;;;;;;;-142.75;42.16;75509.44;5086689;28;19916;-86
2021/05/14 09:32:17;;;;;;;;;;;;;;;-142.75;39.87;75475.97;5086004;28;19916;-84
2021/05/14 09:34:46;;;;;;;;;;;;;;;-142.75;38.83;75361.84;5085307;28;19921;-84
2021/05/14 09:37:15;;;;;;;;;;;;;;;-142.75;37.53;75267.38;5083588;28;19926;-83
2021/05/14 09:39:40;;;;;;;;;;;;;;;-142.75;37.15;75344.13;5083457;28;19916;-82
2021/05/14 09:42:05;;;;;;;;;;;;;;;-142.75;36.67;75355.94;5085675;28;19922;-81
2021/05/14 09:44:30;;;;;;;;;;;;;;;-142.75;37.67;75324.44;5085193;28;19926;-80
2021/05/14 09:46:58;;;;;;;;;;;;;;;-142.75;37.60;75472.03;5090182;28;19922;-83
2021/05/14 09:49:24;;;;;;;;;;;;;;;-142.75;38.54;75641.28;5093458;28;19932;-81
2021/05/14 09:51:53;;;;;;;;;;;;;;;-142.75;42.85;75763.28;5086600;28;20407;-82
2021/05/14 09:54:18;;;;;;;;;;;;;;;-142.75;39.83;75637.34;5088264;28;19916;-82
2021/05/14 09:56:44;;;;;;;;;;;;;;;-142.75;38.83;75495.66;5091980;28;19927;-80
2021/05/14 09:59:10;;;;;;;;;;;;;;;-142.75;39.59;75432.69;5085608;28;19920;-81
2021/05/14 10:01:35;;;;;;;;;;;;;;;-142.75;37.81;75285.09;5082306;28;20010;-81
2021/05/14 10:04:01;;;;;;;;;;;;;;;-142.75;36.99;75241.78;5083371;28;19921;-81
2021/05/14 10:06:26;;;;;;;;;;;;;;;-142.75;35.98;75277.22;5081940;28;19939;-80
2021/05/14 10:08:52;;;;;;;;;;;;;;;-142.75;38.39;75302.78;5080665;28;19916;-78
2021/05/14 10:11:20;;;;;;;;;;;;;;;-142.75;38.58;75401.19;5084153;28;20038;-79
2021/05/14 10:13:46;;;;;;;;;;;;;;;-142.75;40.10;75509.44;5087351;28;20465;-80
2021/05/14 10:16:12;;;;;;;;;;;;;;;-142.75;40.03;75572.41;5082915;28;20285;-81
2021/05/14 10:18:48;;;;;;;;;;;;;;;-142.75;41.55;75641.28;5094316;28;19923;-82
2021/05/14 10:21:14;;;;;;;;;;;;;;;-142.75;42.45;75729.84;5083592;28;19924;-81
2021/05/14 10:23:43;;;;;;;;;;;;;;;-142.75;42.97;75826.28;5096617;28;20400;-79
2021/05/14 10:26:10;;;;;;;;;;;;;;;-142.75;43.11;75877.44;5092398;28;20428;-80
2021/05/14 10:28:49;;;;;;;;;;;;;;;-142.75;43.64;75779.03;5088347;28;19927;-79
2021/05/14 10:31:17;;;;;;;;;;;;;;;-142.75;42.51;75678.66;5094151;28;20010;-80
2021/05/14 10:33:46;;;;;;;;;;;;;;;-142.75;42.00;75704.25;5092508;28;19921;-80
2021/05/14 10:36:11;;;;;;;;;;;;;;;-142.75;42.03;75731.81;5085694;28;20293;-80
2021/05/14 10:38:36;;;;;;;;;;;;;;;-142.75;42.19;75769.19;5087198;28;19919;-80
2021/05/14 10:41:21;;;;;;;;;;;;;;;-142.75;43.75;75816.44;5084568;28;20385;-79
2021/05/14 10:44:07;;;;;;;;;;;;;;;-142.75;43.48;75869.56;5080120;28;19966;-79
2021/05/14 10:46:32;;;;;;;;;;;;;;;-142.75;44.35;75828.25;5082137;28;20447;-78
2021/05/14 10:49:00;;;;;;;;;;;;;;;-142.75;44.13;75692.44;5084004;28;19921;-78
2021/05/14 10:51:45;;;;;;;;;;;;;;;-142.75;42.04;75578.31;5079757;28;19920;-79
2021/05/14 10:54:30;;;;;;;;;;;;;;;-142.75;39.93;75660.97;5083572;28;19927;-79
2021/05/14 10:56:56;;;;;;;;;;;;;;;-142.75;40.66;75653.09;5086148;28;19956;-80
2021/05/14 10:59:29;;;;;;;;;;;;;;;-142.75;40.95;75670.81;5084969;28;20308;-79
2021/05/14 11:01:54;;;;;;;;;;;;;;;-142.75;40.73;75826.28;5085928;28;20428;-78
2021/05/14 11:04:35;;;;;;;;;;;;;;;-142.75;42.54;75802.66;5084354;28;19958;-78
2021/05/14 11:07:00;;;;;;;;;;;;;;;-142.75;41.90;75662.94;5079208;28;19990;-78
2021/05/14 11:09:25;;;;;;;;;;;;;;;-142.75;41.17;75680.63;5082000;28;19916;-77
2021/05/14 11:12:05;;;;;;;;;;;;;;;-142.75;40.91;75668.84;5080034;28;19916;-80
2021/05/14 11:14:41;;;;;;;;;;;;;;;-142.75;40.06;75615.69;5083682;28;19974;-78
2021/05/14 11:17:24;;;;;;;;;;;;;;;-142.75;40.47;75629.47;5083386;28;19921;-79
2021/05/14 11:19:50;;;;;;;;;;;;;;;-142.75;40.47;75609.78;5083018;28;19920;-76
2021/05/14 11:22:15;;;;;;;;;;;;;;;-142.75;39.72;75753.47;5079516;28;19923;-77
2021/05/14 11:24:51;;;;;;;;;;;;;;;-142.75;39.33;75686.53;5081460;28;19917;-77
2021/05/14 11:27:32;;;;;;;;;;;;;;;-142.75;42.97;75847.94;5075165;28;19917;-78
2021/05/14 11:30:02;;;;;;;;;;;;;;;-142.75;40.38;75820.38;5076157;28;19997;-77
2021/05/14 11:32:33;;;;;;;;;;;;;;;-142.75;42.00;75814.47;5073402;28;19920;-77
2021/05/14 11:35:05;;;;;;;;;;;;;;;-142.75;41.66;75773.13;5073209;28;20282;-77
2021/05/14 11:37:33;;;;;;;;;;;;;;;-142.75;41.72;75651.13;5070791;28;20431;-77
2021/05/14 11:40:04;;;;;;;;;;;;;;;-142.75;40.92;75660.97;5070736;28;20308;-76
2021/05/14 11:42:30;;;;;;;;;;;;;;;-142.75;42.16;75767.22;5076012;28;19920;-76
2021/05/14 11:45:04;;;;;;;;;;;;;;;-142.75;42.25;75905.00;5080622;28;20365;-76
2021/05/14 11:47:29;;;;;;;;;;;;;;;-142.75;43.08;75993.56;5084877;28;19916;-77
2021/05/14 11:49:55;;;;;;;;;;;;;;;-142.75;43.94;75962.09;5092021;28;19916;-77
2021/05/14 11:52:33;;;;;;;;;;;;;;;-142.75;43.54;75966.00;5091635;28;19923;-77
2021/05/14 11:54:59;;;;;;;;;;;;;;;-142.75;43.45;75981.75;5085767;28;19947;-74
2021/05/14 11:57:29;;;;;;;;;;;;;;;-142.75;46.22;76023.09;5077516;28;19970;-77
2021/05/14 11:59:55;;;;;;;;;;;;;;;-142.75;45.81;75916.81;5083202;28;19917;-77
2021/05/14 12:02:33;;;;;;;;;;;;;;;-142.75;44.41;75844.00;5079937;28;19924;-76
2021/05/14 12:04:58;;;;;;;;;;;;;;;-142.75;43.88;75782.97;5080843;28;19989;-77
2021/05/14 12:07:23;;;;;;;;;;;;;;;-142.75;43.23;75800.69;5081899;28;19924;-78
2021/05/14 12:09:56;;;;;;;;;;;;;;;-142.75;42.59;75802.66;5074988;28;19920;-77
2021/05/14 12:12:21;;;;;;;;;;;;;;;-142.75;43.49;75822.34;5078685;28;19920;-76
2021/05/14 12:14:46;;;;;;;;;;;;;;;-142.75;43.31;75861.69;5088231;28;19930;-76
2021/05/14 12:17:11;;;;;;;;;;;;;;;-142.75;44.51;75920.75;5070940;28;20017;-76
2021/05/14 12:19:45;;;;;;;;;;;;;;;-142.75;46.01;75981.75;5078298;28;20390;-76
2021/05/14 12:22:10;;;;;;;;;;;;;;;-142.75;46.70;76046.72;5072012;28;19924;-76
2021/05/14 12:24:38;;;;;;;;;;;;;;;-142.75;47.37;76086.06;5080612;28;19946;-76
2021/05/14 12:27:06;;;;;;;;;;;;;;;-142.75;48.32;76121.50;5080093;28;19923;-76
2021/05/14 12:29:32;;;;;;;;;;;;;;;-142.75;49.06;76162.84;5080549;28;19920;-76
2021/05/14 12:31:58;;;;;;;;;;;;;;;-142.75;49.56;76188.44;5082902;28;19920;-76